This is the latest recevied weather packets stored in our database for station/object KD0ISH. If no packets are shown the sender has not sent any weather packets the latest 10 day(s).
| Time | Temp. | Humidity | Pressure | Rain* | Wind** | Luminosity | Snow |
|---|---|---|---|---|---|---|---|
| 1777406126 | 11.67° C | 99% | 1014.7 hPa | 1.27 mm | - | 19 W/m² | - |
| 1777405822 | 11.67° C | 99% | 1015.1 hPa | 0 mm | - | 18 W/m² | - |
| 1777405518 | 11.67° C | 99% | 1015 hPa | 1.78 mm | - | 18 W/m² | - |
| 1777405216 | 11.67° C | 99% | 1014.9 hPa | 1.78 mm | - | 14 W/m² | - |
| 1777404914 | 11.67° C | 99% | 1015.7 hPa | 0 mm | - | 18 W/m² | - |
| 1777404610 | 11.67° C | 99% | 1016 hPa | 0 mm | - | 12 W/m² | - |
| 1777404307 | 11.67° C | 99% | 1015.4 hPa | 1.78 mm | - | 10 W/m² | - |
| 1777404003 | 11.67° C | 99% | 1014.7 hPa | 3.05 mm | - | 5 W/m² | - |
| 1777403698 | 11.67° C | 98% | 1014.6 hPa | 7.11 mm | - | 5 W/m² | - |
| 1777403397 | 11.67° C | 98% | 1015.1 hPa | 6.1 mm | - | 4 W/m² | - |
| 1777403091 | 11.67° C | 98% | 1014.6 hPa | 0 mm | - | 4 W/m² | - |
| 1777402788 | 11.67° C | 98% | 1014.7 hPa | 0 mm | - | 5 W/m² | - |
| 1777402485 | 11.67° C | 98% | 1014.5 hPa | 0 mm | - | 15 W/m² | - |
| 1777402182 | 11.67° C | 98% | 1015 hPa | 0 mm | - | 34 W/m² | - |
| 1777401882 | 11.67° C | 98% | 1014.7 hPa | 0 mm | - | 42 W/m² | - |
| 1777401576 | 11.67° C | 98% | 1014.6 hPa | 0 mm | - | 52 W/m² | - |
| 1777401272 | 11.67° C | 98% | 1014.7 hPa | 0 mm | - | 48 W/m² | - |
| 1777400968 | 11.67° C | 98% | 1014.6 hPa | 1.78 mm | - | 122 W/m² | - |
| 1777400664 | 11.67° C | 98% | 1015.4 hPa | 1.78 mm | - | 48 W/m² | - |
| 1777400362 | 11.11° C | 98% | 1015.3 hPa | 0 mm | - | 82 W/m² | - |
| 1777400057 | 11.11° C | 97% | 1015.3 hPa | 0 mm | - | 130 W/m² | - |
| 1777399755 | 11.11° C | 97% | 1016.3 hPa | 0 mm | - | 41 W/m² | - |
| 1777399451 | 11.11° C | 97% | 1015.5 hPa | 1.27 mm | - | 64 W/m² | - |
| 1777399149 | 10.56° C | 97% | 1015.7 hPa | 1.27 mm | - | 28 W/m² | - |
| 1777398845 | 10.56° C | 96% | 1015.8 hPa | 6.1 mm | - | 8 W/m² | - |
* Rain latest hour (hover to see other rain measurements)
** Current wind speed in m/s (hover to see current wind gust speed)